createdAt,value
2018-06-11T00:02:08.003Z,10.47
2018-06-11T00:04:37.878Z,10.50
2018-06-11T00:07:07.929Z,9.53
2018-06-11T00:09:37.658Z,9.43
2018-06-11T00:12:07.310Z,10.07
2018-06-11T00:14:37.096Z,10.67
2018-06-11T00:17:06.826Z,10.03
2018-06-11T00:19:36.736Z,10.13
2018-06-11T00:22:06.418Z,10.80
2018-06-11T00:24:36.143Z,9.87
2018-06-11T00:27:05.842Z,10.40
2018-06-11T00:29:35.735Z,9.77
2018-06-11T00:32:05.427Z,9.90
2018-06-11T00:34:35.233Z,10.03
2018-06-11T00:37:05.023Z,10.73
2018-06-11T00:39:34.712Z,11.40
2018-06-11T00:42:04.902Z,10.23
2018-06-11T00:44:34.666Z,10.77
2018-06-11T00:47:04.348Z,10.63
2018-06-11T00:49:34.106Z,10.50
2018-06-11T00:52:03.786Z,10.53
2018-06-11T00:54:33.579Z,11.90
2018-06-11T00:57:03.384Z,10.93
2018-06-11T00:59:33.168Z,11.47
2018-06-11T01:02:02.995Z,10.83
2018-06-11T01:04:32.673Z,10.80
2018-06-11T01:07:02.417Z,10.43
2018-06-11T01:09:32.228Z,10.43
2018-06-11T01:12:02.173Z,11.20
2018-06-11T01:14:31.954Z,10.77
2018-06-11T01:17:01.650Z,10.00
2018-06-11T01:19:31.439Z,11.57
2018-06-11T01:22:01.739Z,10.50
2018-06-11T01:24:31.546Z,10.37
2018-06-11T01:27:00.963Z,10.63
2018-06-11T01:29:30.678Z,11.67
2018-06-11T01:32:00.487Z,11.10
2018-06-11T01:34:30.158Z,10.20
2018-06-11T01:36:59.968Z,10.77
2018-06-11T01:39:29.671Z,11.50
2018-06-11T01:41:59.498Z,11.77
2018-06-11T01:44:29.315Z,11.80
2018-06-11T01:46:59.176Z,11.77
2018-06-11T01:49:28.931Z,11.40
2018-06-11T01:51:58.624Z,11.17
2018-06-11T01:54:28.487Z,12.23
2018-06-11T01:56:58.281Z,11.50
2018-06-11T01:59:27.998Z,11.37
2018-06-11T02:01:57.828Z,12.03
2018-06-11T02:04:27.785Z,11.80
2018-06-11T02:06:57.511Z,12.83
2018-06-11T02:09:27.431Z,12.67
2018-06-11T02:11:57.312Z,12.80
2018-06-11T02:14:27.013Z,14.17
2018-06-11T02:16:56.783Z,14.87
2018-06-11T02:19:26.457Z,14.93
2018-06-11T02:21:56.215Z,14.20
2018-06-11T02:24:25.907Z,16.60
2018-06-11T02:26:55.622Z,16.97
2018-06-11T02:29:25.306Z,17.43
2018-06-11T02:31:55.043Z,17.70
2018-06-11T02:34:24.803Z,19.23
2018-06-11T02:36:54.574Z,17.90
2018-06-11T02:39:24.295Z,18.67
2018-06-11T02:41:54.206Z,18.50
2018-06-11T02:44:23.996Z,19.40
2018-06-11T02:46:53.942Z,19.13
2018-06-11T02:49:23.664Z,19.07
2018-06-11T02:51:53.209Z,18.33
2018-06-11T02:54:22.679Z,18.17
2018-06-11T02:56:52.549Z,18.00
2018-06-11T02:59:22.418Z,18.50
2018-06-11T03:01:52.142Z,17.30
2018-06-11T03:04:21.687Z,18.60
2018-06-11T03:06:51.483Z,19.23
2018-06-11T03:09:21.404Z,19.10
2018-06-11T03:11:51.290Z,19.47
2018-06-11T03:14:21.114Z,19.70
2018-06-11T03:16:50.997Z,19.63
2018-06-11T03:19:20.962Z,18.33
2018-06-11T03:21:51.038Z,19.10
2018-06-11T03:24:20.766Z,18.83
2018-06-11T03:26:50.212Z,18.90
2018-06-11T03:29:19.973Z,19.50
2018-06-11T03:31:49.660Z,19.30
2018-06-11T03:34:19.570Z,18.77
2018-06-11T03:36:49.368Z,19.60
2018-06-11T03:39:19.075Z,20.93
2018-06-11T03:41:49.062Z,20.37
2018-06-11T03:44:18.801Z,20.70
2018-06-11T03:46:48.493Z,21.23
2018-06-11T03:49:18.188Z,21.30
2018-06-11T03:51:47.884Z,21.40
2018-06-11T03:54:17.841Z,22.43
2018-06-11T03:56:47.525Z,22.87
2018-06-11T03:59:17.471Z,22.60
2018-06-11T04:01:47.421Z,22.47
2018-06-11T04:04:17.467Z,20.20
2018-06-11T04:06:47.398Z,21.57
2018-06-11T04:09:17.094Z,19.67
2018-06-11T04:11:46.790Z,19.43
2018-06-11T04:14:16.589Z,18.90
2018-06-11T04:16:46.275Z,18.03
2018-06-11T04:19:16.011Z,16.47
2018-06-11T04:21:45.719Z,16.30
2018-06-11T04:24:15.564Z,16.13
2018-06-11T04:26:45.277Z,16.07
2018-06-11T04:29:15.007Z,15.57
2018-06-11T04:31:44.751Z,15.63
2018-06-11T04:34:14.188Z,16.47
2018-06-11T04:36:44.580Z,16.57
2018-06-11T04:39:14.858Z,15.78
2018-06-11T04:41:45.212Z,16.82
2018-06-11T04:44:15.551Z,16.55
2018-06-11T04:46:45.959Z,17.70
2018-06-11T04:49:16.430Z,18.30
2018-06-11T04:51:47.336Z,19.20
2018-06-11T04:54:17.737Z,18.12
2018-06-11T04:56:48.097Z,18.62
2018-06-11T04:59:18.503Z,19.82
2018-06-11T05:01:48.187Z,20.00
2018-06-11T05:04:18.059Z,19.37
2018-06-11T05:06:48.380Z,19.77
2018-06-11T05:09:18.187Z,20.90
2018-06-11T05:11:47.971Z,21.13
2018-06-11T05:14:17.726Z,22.13
2018-06-11T05:16:47.672Z,21.50
2018-06-11T05:19:17.479Z,21.07
2018-06-11T05:21:47.298Z,21.37
2018-06-11T05:24:17.159Z,21.87
2018-06-11T05:26:46.994Z,21.47
2018-06-11T05:29:17.378Z,21.77
2018-06-11T05:31:47.662Z,21.82
2018-06-11T05:34:17.366Z,23.13
2018-06-11T05:36:47.251Z,22.37
2018-06-11T05:39:17.099Z,22.63
2018-06-11T05:41:46.876Z,22.73
2018-06-11T05:44:17.348Z,22.00
2018-06-11T05:46:48.596Z,23.32
2018-06-11T05:49:18.999Z,22.75
2018-06-11T05:51:48.773Z,23.53
2018-06-11T05:54:18.714Z,22.63
2018-06-11T05:56:48.523Z,23.33
2018-06-11T05:59:18.402Z,23.57
2018-06-11T06:01:48.151Z,25.10
2018-06-11T06:04:17.961Z,23.10
2018-06-11T06:06:48.006Z,24.83
2018-06-11T06:09:17.714Z,23.30
2018-06-11T06:11:47.511Z,26.50
2018-06-11T06:14:17.316Z,25.60
2018-06-11T06:16:47.339Z,26.33
2018-06-11T06:19:17.098Z,26.97
2018-06-11T06:21:46.926Z,27.33
2018-06-11T06:24:16.736Z,27.13
2018-06-11T06:26:46.679Z,29.33
2018-06-11T06:29:16.502Z,28.80
2018-06-11T06:31:46.326Z,28.80
2018-06-11T06:34:16.115Z,31.03
2018-06-11T06:36:46.235Z,28.87
2018-06-11T06:39:15.974Z,30.57
2018-06-11T06:41:46.201Z,29.83
2018-06-11T06:44:16.208Z,29.60
2018-06-11T06:46:45.985Z,27.80
2018-06-11T06:49:16.367Z,30.80
2018-06-11T06:51:46.079Z,30.47
2018-06-11T06:54:16.136Z,29.23
2018-06-11T06:56:45.615Z,29.13
2018-06-11T06:59:15.941Z,28.60
2018-06-11T07:01:46.352Z,29.12
2018-06-11T07:04:16.735Z,28.95
2018-06-11T07:06:46.870Z,28.77
2018-06-11T07:09:17.666Z,27.10
2018-06-11T07:11:47.954Z,28.25
2018-06-11T07:14:18.323Z,27.77
2018-06-11T07:16:48.689Z,27.05
2018-06-11T07:19:20.935Z,27.80
2018-06-11T07:21:51.387Z,27.13
2018-06-11T07:24:21.869Z,24.87
2018-06-11T07:26:52.138Z,24.63
2018-06-11T07:29:22.434Z,25.05
2018-06-11T07:31:52.822Z,24.00
2018-06-11T07:34:23.206Z,22.87
2018-06-11T07:36:53.476Z,22.25
2018-06-11T07:39:23.958Z,20.72
2018-06-11T07:41:54.285Z,19.73
2018-06-11T07:44:24.588Z,19.75
2018-06-11T07:46:55.037Z,19.32
2018-06-11T07:49:25.362Z,19.87
2018-06-11T07:51:55.708Z,19.75
2018-06-11T07:54:26.007Z,19.30
2018-06-11T07:56:56.573Z,19.50
2018-06-11T07:59:26.941Z,19.98
2018-06-11T08:01:56.673Z,19.30
2018-06-11T08:04:27.019Z,18.92
2018-06-11T08:06:57.442Z,18.82
2018-06-11T08:09:27.796Z,18.62
2018-06-11T08:11:58.106Z,18.95
2018-06-11T08:14:28.433Z,17.77
2018-06-11T08:16:58.778Z,18.85
2018-06-11T08:19:29.872Z,18.50
2018-06-11T08:22:00.206Z,19.60
2018-06-11T08:24:30.691Z,19.60
2018-06-11T08:27:01.056Z,20.20
2018-06-11T08:29:31.243Z,19.60
2018-06-11T08:32:01.631Z,19.02
2018-06-11T08:34:31.707Z,19.07
2018-06-11T08:37:02.058Z,17.37
2018-06-11T08:39:32.126Z,16.85
2018-06-11T08:42:02.538Z,15.90
2018-06-11T08:44:32.978Z,14.33
2018-06-11T08:47:03.670Z,13.58
2018-06-11T08:49:33.891Z,13.32
2018-06-11T08:52:04.200Z,13.58
2018-06-11T08:54:34.326Z,13.85
2018-06-11T08:57:05.116Z,13.20
2018-06-11T08:59:36.495Z,14.50
2018-06-11T09:02:06.815Z,14.35
2018-06-11T09:04:37.169Z,14.83
2018-06-11T09:07:07.692Z,14.05
2018-06-11T09:09:38.217Z,13.43
2018-06-11T09:12:08.504Z,13.72
2018-06-11T09:14:39.210Z,13.65
2018-06-11T09:17:09.577Z,15.00
2018-06-11T09:19:39.930Z,13.43
2018-06-11T09:22:10.394Z,14.58
2018-06-11T09:24:40.686Z,15.30
2018-06-11T09:27:11.055Z,15.05
2018-06-11T09:29:41.347Z,15.68
2018-06-11T09:32:11.774Z,17.42
2018-06-11T09:34:42.337Z,16.87
2018-06-11T09:37:12.921Z,16.05
2018-06-11T09:39:43.499Z,16.57
2018-06-11T09:42:13.905Z,16.27
2018-06-11T09:44:44.399Z,15.98
2018-06-11T09:47:14.744Z,15.00
2018-06-11T09:49:45.138Z,14.18
2018-06-11T09:52:15.179Z,13.38
2018-06-11T09:54:45.490Z,13.40
2018-06-11T09:57:15.522Z,13.93
2018-06-11T09:59:45.821Z,13.22
2018-06-11T10:02:16.961Z,13.38
2018-06-11T10:04:47.256Z,12.45
2018-06-11T10:07:17.603Z,11.65
2018-06-11T10:09:47.959Z,11.93
2018-06-11T10:12:18.413Z,12.50
2018-06-11T10:14:48.916Z,12.35
2018-06-11T10:17:19.252Z,11.80
2018-06-11T10:19:49.560Z,12.40
2018-06-11T10:22:19.955Z,12.05
2018-06-11T10:24:50.270Z,12.03
2018-06-11T10:27:20.820Z,12.73
2018-06-11T10:29:51.172Z,12.90
2018-06-11T10:35:03.471Z,13.05
2018-06-11T10:37:34.520Z,12.53
2018-06-11T10:40:05.287Z,12.23
2018-06-11T10:42:35.685Z,11.65
2018-06-11T10:45:06.134Z,12.35
2018-06-11T10:47:36.452Z,12.25
2018-06-11T10:50:07.198Z,11.65
2018-06-11T10:52:37.713Z,11.28
2018-06-11T10:55:08.179Z,11.40
2018-06-11T10:57:38.486Z,11.03
2018-06-11T11:00:09.058Z,11.12
2018-06-11T11:02:39.381Z,10.58
2018-06-11T11:05:09.769Z,11.63
2018-06-11T11:07:40.232Z,10.45
2018-06-11T11:10:10.368Z,10.40
2018-06-11T11:12:40.883Z,10.18
2018-06-11T11:15:11.419Z,9.45
2018-06-11T11:17:41.807Z,10.00
2018-06-11T11:20:12.303Z,9.85
2018-06-11T11:22:42.671Z,10.18
2018-06-11T11:25:13.264Z,10.23
2018-06-11T11:27:43.635Z,9.68
2018-06-11T11:30:14.000Z,9.63
2018-06-11T11:32:44.373Z,9.23
2018-06-11T11:35:14.685Z,8.70
2018-06-11T11:37:45.092Z,8.93
2018-06-11T11:40:15.474Z,9.33
2018-06-11T11:42:46.038Z,8.73
2018-06-11T11:45:16.343Z,8.60
2018-06-11T11:47:46.641Z,8.55
2018-06-11T11:50:17.115Z,7.67
2018-06-11T11:52:47.475Z,8.25
2018-06-11T11:55:17.749Z,7.95
2018-06-11T11:57:48.713Z,7.60
2018-06-11T12:00:19.014Z,7.35
2018-06-11T12:02:49.386Z,7.05
2018-06-11T12:05:19.644Z,7.03
2018-06-11T12:07:50.110Z,7.28
2018-06-11T12:10:20.534Z,7.03
2018-06-11T12:12:51.401Z,7.20
2018-06-11T12:15:21.698Z,6.83
2018-06-11T12:17:52.206Z,7.15
2018-06-11T12:20:22.262Z,6.95
2018-06-11T12:22:52.659Z,7.30
2018-06-11T12:25:23.813Z,7.10
2018-06-11T12:27:54.184Z,6.75
2018-06-11T12:30:24.621Z,6.83
2018-06-11T12:32:54.962Z,6.87
2018-06-11T12:35:25.402Z,7.30
2018-06-11T12:37:55.901Z,6.92
2018-06-11T12:40:26.291Z,7.53
2018-06-11T12:42:56.647Z,7.80
2018-06-11T12:45:27.046Z,7.65
2018-06-11T12:47:57.411Z,7.70
2018-06-11T12:50:27.918Z,7.00
2018-06-11T12:52:58.279Z,7.90
2018-06-11T12:55:28.618Z,8.80
2018-06-11T12:57:58.951Z,9.25
2018-06-11T13:00:30.025Z,9.43
2018-06-11T13:03:00.521Z,8.18
2018-06-11T13:05:30.844Z,8.10
2018-06-11T13:08:01.341Z,7.00
2018-06-11T13:10:31.718Z,8.15
2018-06-11T13:13:02.603Z,7.65
2018-06-11T13:15:32.977Z,7.55
2018-06-11T13:18:03.357Z,7.80
2018-06-11T13:20:33.614Z,8.40
2018-06-11T13:23:03.930Z,7.90
2018-06-11T13:25:34.439Z,7.65
2018-06-11T13:28:05.189Z,6.97
2018-06-11T13:30:35.569Z,7.90
2018-06-11T13:33:05.979Z,7.90
2018-06-11T13:35:36.346Z,7.85
2018-06-11T13:38:06.853Z,8.13
2018-06-11T13:40:37.937Z,8.08
2018-06-11T13:43:08.213Z,8.10
2018-06-11T13:45:38.278Z,7.47
2018-06-11T13:48:08.566Z,7.03
2018-06-11T13:50:39.218Z,6.90
2018-06-11T13:53:09.493Z,6.70
2018-06-11T13:55:40.099Z,6.65
2018-06-11T13:58:10.388Z,7.30
2018-06-11T14:00:40.696Z,6.80
2018-06-11T14:03:11.195Z,7.67
2018-06-11T14:05:41.516Z,7.08
2018-06-11T14:08:11.665Z,6.58
2018-06-11T14:10:42.059Z,7.30
2018-06-11T14:13:12.475Z,6.87
2018-06-11T14:15:42.746Z,6.78
2018-06-11T14:18:13.142Z,6.90
2018-06-11T14:20:43.390Z,7.25
2018-06-11T14:23:13.709Z,7.08
2018-06-11T14:25:44.070Z,6.70
2018-06-11T14:28:14.371Z,7.10
2018-06-11T14:30:44.650Z,6.92
2018-06-11T14:33:14.944Z,6.70
2018-06-11T14:35:45.201Z,7.00
2018-06-11T14:38:15.497Z,6.92
2018-06-11T14:40:46.386Z,6.83
2018-06-11T14:43:16.699Z,6.92
2018-06-11T14:45:47.026Z,7.35
2018-06-11T14:48:17.414Z,7.20
2018-06-11T14:50:47.890Z,7.50
2018-06-11T14:53:18.188Z,7.47
2018-06-11T14:55:48.547Z,6.97
2018-06-11T14:58:18.872Z,7.83
2018-06-11T15:00:49.436Z,7.45
2018-06-11T15:03:19.789Z,7.05
2018-06-11T15:05:50.116Z,6.30
2018-06-11T15:08:20.624Z,6.75
2018-06-11T15:10:51.047Z,7.28
2018-06-11T15:13:21.374Z,6.92
2018-06-11T15:15:51.750Z,7.75
2018-06-11T15:18:22.227Z,8.60
2018-06-11T15:20:52.474Z,9.83
2018-06-11T15:23:22.831Z,7.60
2018-06-11T15:25:53.135Z,7.60
2018-06-11T15:28:23.471Z,7.28
2018-06-11T15:30:53.815Z,7.55
2018-06-11T15:33:24.164Z,7.90
2018-06-11T15:35:54.608Z,7.05
2018-06-11T15:38:24.932Z,7.22
2018-06-11T15:40:55.248Z,7.22
2018-06-11T15:43:25.658Z,7.40
2018-06-11T15:45:56.262Z,6.78
2018-06-11T15:48:26.554Z,7.10
2018-06-11T15:50:56.917Z,8.45
2018-06-11T15:53:27.243Z,8.18
2018-06-11T15:55:57.573Z,6.95
2018-06-11T15:58:27.922Z,7.70
2018-06-11T16:00:58.362Z,7.50
2018-06-11T16:03:28.667Z,7.80
2018-06-11T16:05:59.125Z,8.20
2018-06-11T16:08:29.646Z,7.92
2018-06-11T16:10:59.955Z,7.40
2018-06-11T16:13:30.406Z,7.95
2018-06-11T16:16:00.896Z,7.15
2018-06-11T16:18:31.210Z,7.15
2018-06-11T16:21:02.418Z,7.50
2018-06-11T16:23:32.882Z,7.05
2018-06-11T16:26:03.211Z,7.28
2018-06-11T16:28:33.501Z,7.65
2018-06-11T16:31:03.880Z,7.50
2018-06-11T16:33:34.404Z,7.42
2018-06-11T16:36:04.827Z,7.47
2018-06-11T16:38:35.865Z,6.95
2018-06-11T16:41:07.599Z,8.15
2018-06-11T16:43:37.948Z,7.72
2018-06-11T16:46:08.370Z,8.10
2018-06-11T16:48:38.193Z,8.40
2018-06-11T16:51:07.981Z,7.77
2018-06-11T16:53:38.376Z,8.55
2018-06-11T16:56:08.742Z,7.85
2018-06-11T16:58:39.077Z,8.08
2018-06-11T17:01:09.534Z,8.15
2018-06-11T17:03:39.851Z,8.13
2018-06-11T17:06:10.192Z,7.97
2018-06-11T17:08:40.169Z,7.90
2018-06-11T17:11:10.474Z,8.23
2018-06-11T17:13:40.850Z,7.60
2018-06-11T17:16:10.645Z,8.37
2018-06-11T17:18:41.019Z,8.08
2018-06-11T17:21:10.773Z,8.07
2018-06-11T17:23:40.562Z,8.35
2018-06-11T17:26:10.558Z,8.23
2018-06-11T17:28:40.937Z,8.83
2018-06-11T17:31:10.698Z,8.40
2018-06-11T17:33:40.737Z,8.40
2018-06-11T17:36:11.154Z,8.48
2018-06-11T17:38:41.566Z,8.35
2018-06-11T17:41:11.866Z,8.48
2018-06-11T17:43:42.287Z,8.13
2018-06-11T17:46:12.644Z,9.08
2018-06-11T17:48:42.970Z,8.58
2018-06-11T17:51:13.320Z,8.40
2018-06-11T17:53:43.779Z,9.08
2018-06-11T17:56:14.154Z,8.88
2018-06-11T17:58:44.538Z,9.13
2018-06-11T18:01:14.833Z,8.70
2018-06-11T18:03:45.187Z,8.90
2018-06-11T18:06:15.667Z,8.65
2018-06-11T18:08:46.364Z,8.90
2018-06-11T18:11:16.776Z,8.90
2018-06-11T18:13:47.229Z,8.88
2018-06-11T18:16:17.659Z,8.88
2018-06-11T18:18:48.217Z,8.53
2018-06-11T18:21:19.701Z,8.65
2018-06-11T18:23:50.540Z,9.23
2018-06-11T18:26:20.861Z,8.60
2018-06-11T18:28:51.246Z,9.63
2018-06-11T18:31:21.639Z,8.63
2018-06-11T18:33:52.111Z,8.85
2018-06-11T18:36:22.528Z,9.00
2018-06-11T18:38:52.914Z,8.83
2018-06-11T18:41:23.670Z,8.75
2018-06-11T18:43:54.893Z,9.15
2018-06-11T18:46:25.233Z,9.23
2018-06-11T18:48:54.983Z,8.95
2018-06-11T18:51:24.732Z,9.98
2018-06-11T18:53:55.323Z,9.78
2018-06-11T18:56:25.227Z,9.57
2018-06-11T18:58:55.643Z,10.75
2018-06-11T19:01:25.412Z,56.90
2018-06-11T19:03:55.769Z,33.80
2018-06-11T19:06:26.102Z,23.00
2018-06-11T19:08:56.701Z,13.10
2018-06-11T19:11:26.513Z,13.00
2018-06-11T19:13:56.466Z,12.57
2018-06-11T19:16:26.741Z,14.05
2018-06-11T19:18:57.190Z,19.52
2018-06-11T19:21:27.400Z,30.53
2018-06-11T19:23:57.888Z,33.78
2018-06-11T19:26:29.301Z,17.35
2018-06-11T19:28:59.213Z,13.57
2018-06-11T19:31:29.192Z,12.70
2018-06-11T19:33:58.993Z,17.27
2018-06-11T19:36:28.781Z,18.30
2018-06-11T19:38:58.572Z,17.90
2018-06-11T19:41:28.348Z,13.00
2018-06-11T19:43:59.039Z,14.50
2018-06-11T19:46:28.836Z,15.45
2018-06-11T19:48:58.571Z,15.67
2018-06-11T19:51:28.315Z,14.30
2018-06-11T19:53:58.031Z,15.10
2018-06-11T19:56:27.881Z,14.53
2018-06-11T19:58:57.763Z,15.27
2018-06-11T20:01:27.721Z,14.70
2018-06-11T20:03:57.521Z,14.03
2018-06-11T20:06:27.320Z,14.30
2018-06-11T20:08:57.334Z,13.80
2018-06-11T20:11:26.816Z,14.43
2018-06-11T20:13:56.635Z,14.67
2018-06-11T20:16:26.415Z,14.67
2018-06-11T20:18:56.234Z,15.57
2018-06-11T20:21:25.740Z,14.67
2018-06-11T20:23:55.476Z,15.23
2018-06-11T20:26:25.286Z,15.97
2018-06-11T20:28:55.071Z,15.40
2018-06-11T20:31:24.794Z,16.53
2018-06-11T20:33:54.524Z,15.37
2018-06-11T20:36:24.245Z,15.83
2018-06-11T20:38:54.078Z,15.83
2018-06-11T20:41:23.846Z,17.13
2018-06-11T20:43:53.688Z,16.80
2018-06-11T20:46:23.439Z,15.20
2018-06-11T20:48:53.137Z,15.80
2018-06-11T20:51:22.944Z,15.03
2018-06-11T20:53:52.721Z,17.17
2018-06-11T20:56:22.542Z,16.37
2018-06-11T20:58:52.287Z,16.97
2018-06-11T21:01:22.056Z,18.33
2018-06-11T21:03:51.807Z,18.13
2018-06-11T21:06:21.515Z,17.90
2018-06-11T21:08:51.090Z,18.60
2018-06-11T21:11:20.807Z,19.10
2018-06-11T21:13:50.507Z,19.87
2018-06-11T21:16:20.703Z,18.50
2018-06-11T21:18:50.562Z,18.97
2018-06-11T21:21:20.265Z,19.10
2018-06-11T21:23:50.028Z,18.87
2018-06-11T21:26:19.791Z,17.53
2018-06-11T21:28:49.633Z,19.53
2018-06-11T21:31:19.566Z,19.33
2018-06-11T21:33:49.172Z,19.07
2018-06-11T21:36:18.981Z,19.87
2018-06-11T21:38:48.706Z,19.00
2018-06-11T21:41:20.270Z,19.63
2018-06-11T21:43:50.185Z,18.90
2018-06-11T21:46:20.988Z,18.50
2018-06-11T21:48:51.640Z,18.10
2018-06-11T21:51:21.681Z,17.80
2018-06-11T21:53:51.531Z,17.43
2018-06-11T21:56:21.299Z,17.07
2018-06-11T21:58:51.151Z,17.13
2018-06-11T22:01:20.928Z,17.13
2018-06-11T22:03:50.595Z,16.63
2018-06-11T22:06:21.253Z,17.73
2018-06-11T22:08:51.016Z,16.70
2018-06-11T22:11:20.853Z,17.13
2018-06-11T22:13:50.615Z,17.73
2018-06-11T22:16:20.306Z,17.63
2018-06-11T22:18:50.082Z,17.10
2018-06-11T22:21:19.885Z,18.73
2018-06-11T22:23:49.346Z,17.43
2018-06-11T22:26:19.078Z,18.13
2018-06-11T22:28:48.813Z,19.50
2018-06-11T22:31:18.642Z,20.73
2018-06-11T22:33:48.376Z,19.57
2018-06-11T22:36:18.225Z,19.87
2018-06-11T22:38:47.987Z,19.73
2018-06-11T22:41:17.674Z,19.30
2018-06-11T22:43:47.426Z,21.87
2018-06-11T22:46:17.110Z,21.63
2018-06-11T22:48:46.853Z,23.77
2018-06-11T22:51:17.404Z,24.63
2018-06-11T22:53:47.251Z,24.90
2018-06-11T22:56:16.703Z,25.40
2018-06-11T22:58:46.444Z,25.70
2018-06-11T23:01:16.250Z,25.97
2018-06-11T23:03:45.997Z,26.83
2018-06-11T23:06:15.827Z,27.83
2018-06-11T23:08:45.596Z,28.53
2018-06-11T23:11:15.446Z,27.93
2018-06-11T23:13:45.224Z,30.57
2018-06-11T23:16:15.026Z,30.53
2018-06-11T23:18:44.903Z,28.77
2018-06-11T23:21:14.634Z,27.97
2018-06-11T23:23:44.352Z,26.90
2018-06-11T23:26:14.196Z,27.57
2018-06-11T23:28:44.386Z,26.07
2018-06-11T23:31:14.127Z,27.87
2018-06-11T23:33:44.000Z,26.73
2018-06-11T23:36:13.687Z,24.90
2018-06-11T23:38:43.377Z,24.97
2018-06-11T23:41:13.239Z,24.03
2018-06-11T23:43:42.990Z,24.00
2018-06-11T23:46:12.728Z,24.33
2018-06-11T23:48:42.858Z,25.73
2018-06-11T23:51:12.577Z,24.20
2018-06-11T23:53:42.365Z,24.97
2018-06-11T23:56:12.184Z,25.03
2018-06-11T23:58:42.040Z,24.23
